sensor_id;sensor_type;location;lat;lon;timestamp;P1;durP1;ratioP1;P2;durP2;ratioP2
1957;SDS011;979;51.076;13.748;2023-05-20T00:01:29;33.13;;;30.17;;
1957;SDS011;979;51.076;13.748;2023-05-20T00:04:00;32.20;;;29.60;;
1957;SDS011;979;51.076;13.748;2023-05-20T00:06:29;32.97;;;30.27;;
1957;SDS011;979;51.076;13.748;2023-05-20T00:09:03;32.30;;;29.53;;
1957;SDS011;979;51.076;13.748;2023-05-20T00:11:32;31.57;;;29.13;;
1957;SDS011;979;51.076;13.748;2023-05-20T00:14:04;33.80;;;30.80;;
1957;SDS011;979;51.076;13.748;2023-05-20T00:16:33;33.20;;;30.40;;
1957;SDS011;979;51.076;13.748;2023-05-20T00:19:11;32.30;;;29.50;;
1957;SDS011;979;51.076;13.748;2023-05-20T00:21:43;35.43;;;32.20;;
1957;SDS011;979;51.076;13.748;2023-05-20T00:24:15;33.80;;;30.97;;
1957;SDS011;979;51.076;13.748;2023-05-20T00:26:46;32.23;;;29.47;;
1957;SDS011;979;51.076;13.748;2023-05-20T00:29:17;34.17;;;30.97;;
1957;SDS011;979;51.076;13.748;2023-05-20T00:31:47;34.27;;;31.30;;
1957;SDS011;979;51.076;13.748;2023-05-20T00:34:18;32.50;;;29.27;;
1957;SDS011;979;51.076;13.748;2023-05-20T00:36:48;33.13;;;30.07;;
1957;SDS011;979;51.076;13.748;2023-05-20T00:39:20;32.90;;;30.00;;
1957;SDS011;979;51.076;13.748;2023-05-20T00:41:49;34.77;;;31.37;;
1957;SDS011;979;51.076;13.748;2023-05-20T00:44:24;30.50;;;28.10;;
1957;SDS011;979;51.076;13.748;2023-05-20T00:46:53;33.43;;;30.50;;
1957;SDS011;979;51.076;13.748;2023-05-20T00:49:23;33.17;;;30.37;;
1957;SDS011;979;51.076;13.748;2023-05-20T00:51:52;32.93;;;30.13;;
1957;SDS011;979;51.076;13.748;2023-05-20T00:54:23;34.13;;;31.10;;
1957;SDS011;979;51.076;13.748;2023-05-20T00:56:52;35.10;;;32.17;;
1957;SDS011;979;51.076;13.748;2023-05-20T00:59:21;27.83;;;25.70;;
1957;SDS011;979;51.076;13.748;2023-05-20T01:01:53;33.47;;;30.70;;
1957;SDS011;979;51.076;13.748;2023-05-20T01:04:26;32.17;;;29.37;;
1957;SDS011;979;51.076;13.748;2023-05-20T01:07:02;32.30;;;29.50;;
1957;SDS011;979;51.076;13.748;2023-05-20T01:09:44;33.80;;;30.40;;
1957;SDS011;979;51.076;13.748;2023-05-20T01:12:14;31.90;;;29.10;;
1957;SDS011;979;51.076;13.748;2023-05-20T01:14:47;33.50;;;30.60;;
1957;SDS011;979;51.076;13.748;2023-05-20T01:17:19;32.90;;;30.07;;
1957;SDS011;979;51.076;13.748;2023-05-20T01:19:55;34.20;;;31.20;;
1957;SDS011;979;51.076;13.748;2023-05-20T01:22:32;34.20;;;31.37;;
1957;SDS011;979;51.076;13.748;2023-05-20T01:25:01;33.30;;;30.50;;
1957;SDS011;979;51.076;13.748;2023-05-20T01:27:31;34.20;;;30.90;;
1957;SDS011;979;51.076;13.748;2023-05-20T01:29:59;34.13;;;30.67;;
1957;SDS011;979;51.076;13.748;2023-05-20T01:32:30;33.87;;;30.87;;
1957;SDS011;979;51.076;13.748;2023-05-20T01:35:00;33.50;;;30.57;;
1957;SDS011;979;51.076;13.748;2023-05-20T01:37:31;32.70;;;30.10;;
1957;SDS011;979;51.076;13.748;2023-05-20T01:40:05;34.17;;;31.07;;
1957;SDS011;979;51.076;13.748;2023-05-20T01:42:40;34.00;;;30.70;;
1957;SDS011;979;51.076;13.748;2023-05-20T01:45:10;34.63;;;31.60;;
1957;SDS011;979;51.076;13.748;2023-05-20T01:47:39;32.27;;;29.57;;
1957;SDS011;979;51.076;13.748;2023-05-20T01:50:17;33.00;;;30.10;;
1957;SDS011;979;51.076;13.748;2023-05-20T01:52:49;33.93;;;31.07;;
1957;SDS011;979;51.076;13.748;2023-05-20T01:55:18;33.50;;;30.40;;
1957;SDS011;979;51.076;13.748;2023-05-20T01:57:55;32.60;;;29.80;;
1957;SDS011;979;51.076;13.748;2023-05-20T02:00:24;32.70;;;29.70;;
1957;SDS011;979;51.076;13.748;2023-05-20T02:03:02;32.80;;;30.00;;
1957;SDS011;979;51.076;13.748;2023-05-20T02:05:37;32.60;;;30.00;;
1957;SDS011;979;51.076;13.748;2023-05-20T02:08:08;37.93;;;30.60;;
1957;SDS011;979;51.076;13.748;2023-05-20T02:10:37;33.60;;;30.80;;
1957;SDS011;979;51.076;13.748;2023-05-20T02:13:06;33.17;;;30.27;;
1957;SDS011;979;51.076;13.748;2023-05-20T02:15:34;32.63;;;30.03;;
1957;SDS011;979;51.076;13.748;2023-05-20T02:18:08;33.90;;;30.70;;
1957;SDS011;979;51.076;13.748;2023-05-20T02:20:42;35.03;;;32.23;;
1957;SDS011;979;51.076;13.748;2023-05-20T02:23:16;35.07;;;31.90;;
1957;SDS011;979;51.076;13.748;2023-05-20T02:25:47;34.00;;;30.67;;
1957;SDS011;979;51.076;13.748;2023-05-20T02:28:19;33.60;;;30.50;;
1957;SDS011;979;51.076;13.748;2023-05-20T02:30:50;34.23;;;30.70;;
1957;SDS011;979;51.076;13.748;2023-05-20T02:33:19;31.63;;;28.83;;
1957;SDS011;979;51.076;13.748;2023-05-20T02:35:53;32.07;;;29.40;;
1957;SDS011;979;51.076;13.748;2023-05-20T02:38:25;33.13;;;30.23;;
1957;SDS011;979;51.076;13.748;2023-05-20T02:40:57;33.30;;;30.10;;
1957;SDS011;979;51.076;13.748;2023-05-20T02:43:34;30.90;;;28.20;;
1957;SDS011;979;51.076;13.748;2023-05-20T02:46:03;31.93;;;29.17;;
1957;SDS011;979;51.076;13.748;2023-05-20T02:48:31;30.37;;;27.80;;
1957;SDS011;979;51.076;13.748;2023-05-20T02:51:03;31.60;;;28.90;;
1957;SDS011;979;51.076;13.748;2023-05-20T02:53:35;32.23;;;29.33;;
1957;SDS011;979;51.076;13.748;2023-05-20T02:56:07;33.97;;;30.90;;
1957;SDS011;979;51.076;13.748;2023-05-20T02:58:36;32.30;;;29.60;;
1957;SDS011;979;51.076;13.748;2023-05-20T03:01:08;32.17;;;29.37;;
1957;SDS011;979;51.076;13.748;2023-05-20T03:03:41;31.60;;;28.70;;
1957;SDS011;979;51.076;13.748;2023-05-20T03:06:10;33.00;;;29.83;;
1957;SDS011;979;51.076;13.748;2023-05-20T03:08:50;33.13;;;30.30;;
1957;SDS011;979;51.076;13.748;2023-05-20T03:11:19;32.10;;;29.60;;
1957;SDS011;979;51.076;13.748;2023-05-20T03:13:51;33.67;;;30.40;;
1957;SDS011;979;51.076;13.748;2023-05-20T03:16:20;32.77;;;29.97;;
1957;SDS011;979;51.076;13.748;2023-05-20T03:18:54;33.57;;;30.60;;
1957;SDS011;979;51.076;13.748;2023-05-20T03:21:29;34.03;;;30.97;;
1957;SDS011;979;51.076;13.748;2023-05-20T03:24:07;34.40;;;31.40;;
1957;SDS011;979;51.076;13.748;2023-05-20T03:26:45;31.73;;;28.87;;
1957;SDS011;979;51.076;13.748;2023-05-20T03:29:18;30.47;;;28.00;;
1957;SDS011;979;51.076;13.748;2023-05-20T03:31:53;34.70;;;31.57;;
1957;SDS011;979;51.076;13.748;2023-05-20T03:34:24;34.73;;;31.20;;
1957;SDS011;979;51.076;13.748;2023-05-20T03:36:55;33.53;;;30.43;;
1957;SDS011;979;51.076;13.748;2023-05-20T03:39:28;32.77;;;29.80;;
1957;SDS011;979;51.076;13.748;2023-05-20T03:41:57;33.33;;;30.17;;
1957;SDS011;979;51.076;13.748;2023-05-20T03:44:30;30.47;;;28.07;;
1957;SDS011;979;51.076;13.748;2023-05-20T03:47:01;33.07;;;30.03;;
1957;SDS011;979;51.076;13.748;2023-05-20T03:49:37;31.37;;;28.57;;
1957;SDS011;979;51.076;13.748;2023-05-20T03:52:06;32.77;;;29.93;;
1957;SDS011;979;51.076;13.748;2023-05-20T03:54:39;32.87;;;29.87;;
1957;SDS011;979;51.076;13.748;2023-05-20T03:57:08;31.70;;;29.00;;
1957;SDS011;979;51.076;13.748;2023-05-20T03:59:37;32.13;;;29.53;;
1957;SDS011;979;51.076;13.748;2023-05-20T04:02:08;31.90;;;29.30;;
1957;SDS011;979;51.076;13.748;2023-05-20T04:04:39;33.80;;;30.90;;
1957;SDS011;979;51.076;13.748;2023-05-20T04:07:09;33.27;;;30.37;;
1957;SDS011;979;51.076;13.748;2023-05-20T04:09:40;33.43;;;30.73;;
1957;SDS011;979;51.076;13.748;2023-05-20T04:12:13;31.47;;;28.97;;
1957;SDS011;979;51.076;13.748;2023-05-20T04:14:49;32.70;;;29.97;;
1957;SDS011;979;51.076;13.748;2023-05-20T04:17:21;34.07;;;31.37;;
1957;SDS011;979;51.076;13.748;2023-05-20T04:19:59;34.20;;;31.40;;
1957;SDS011;979;51.076;13.748;2023-05-20T04:22:31;32.50;;;29.80;;
1957;SDS011;979;51.076;13.748;2023-05-20T04:25:08;33.17;;;30.50;;
1957;SDS011;979;51.076;13.748;2023-05-20T04:27:42;32.47;;;29.43;;
1957;SDS011;979;51.076;13.748;2023-05-20T04:30:11;33.93;;;31.17;;
1957;SDS011;979;51.076;13.748;2023-05-20T04:32:42;32.67;;;29.97;;
1957;SDS011;979;51.076;13.748;2023-05-20T04:35:11;33.73;;;30.97;;
1957;SDS011;979;51.076;13.748;2023-05-20T04:37:43;33.70;;;30.70;;
1957;SDS011;979;51.076;13.748;2023-05-20T04:40:16;32.47;;;29.60;;
1957;SDS011;979;51.076;13.748;2023-05-20T04:42:46;34.10;;;31.23;;
1957;SDS011;979;51.076;13.748;2023-05-20T04:45:16;31.50;;;29.00;;
1957;SDS011;979;51.076;13.748;2023-05-20T04:47:50;33.17;;;30.57;;
1957;SDS011;979;51.076;13.748;2023-05-20T04:50:20;32.43;;;29.37;;
1957;SDS011;979;51.076;13.748;2023-05-20T04:52:50;33.03;;;30.13;;
1957;SDS011;979;51.076;13.748;2023-05-20T04:55:23;34.10;;;30.97;;
1957;SDS011;979;51.076;13.748;2023-05-20T04:57:54;33.07;;;30.20;;
1957;SDS011;979;51.076;13.748;2023-05-20T05:00:26;32.93;;;30.00;;
1957;SDS011;979;51.076;13.748;2023-05-20T05:02:55;34.03;;;31.07;;
1957;SDS011;979;51.076;13.748;2023-05-20T05:05:29;33.40;;;30.67;;
1957;SDS011;979;51.076;13.748;2023-05-20T05:08:13;34.00;;;31.00;;
1957;SDS011;979;51.076;13.748;2023-05-20T05:10:49;34.93;;;31.97;;
1957;SDS011;979;51.076;13.748;2023-05-20T05:13:18;34.30;;;31.30;;
1957;SDS011;979;51.076;13.748;2023-05-20T05:15:47;34.60;;;31.60;;
1957;SDS011;979;51.076;13.748;2023-05-20T05:18:30;37.00;;;33.37;;
1957;SDS011;979;51.076;13.748;2023-05-20T05:21:04;35.97;;;32.47;;
1957;SDS011;979;51.076;13.748;2023-05-20T05:23:40;36.13;;;32.87;;
1957;SDS011;979;51.076;13.748;2023-05-20T05:26:18;34.63;;;31.63;;
1957;SDS011;979;51.076;13.748;2023-05-20T05:28:55;38.00;;;34.60;;
1957;SDS011;979;51.076;13.748;2023-05-20T05:31:26;37.17;;;33.60;;
1957;SDS011;979;51.076;13.748;2023-05-20T05:33:59;37.10;;;33.80;;
1957;SDS011;979;51.076;13.748;2023-05-20T05:36:31;37.83;;;34.37;;
1957;SDS011;979;51.076;13.748;2023-05-20T05:39:06;38.27;;;34.80;;
1957;SDS011;979;51.076;13.748;2023-05-20T05:41:36;40.00;;;36.33;;
1957;SDS011;979;51.076;13.748;2023-05-20T05:44:07;36.43;;;33.23;;
1957;SDS011;979;51.076;13.748;2023-05-20T05:46:43;35.40;;;32.20;;
1957;SDS011;979;51.076;13.748;2023-05-20T05:49:11;39.27;;;35.10;;
1957;SDS011;979;51.076;13.748;2023-05-20T05:51:43;37.20;;;33.67;;
1957;SDS011;979;51.076;13.748;2023-05-20T05:54:18;37.93;;;34.27;;
1957;SDS011;979;51.076;13.748;2023-05-20T05:56:51;37.50;;;34.10;;
1957;SDS011;979;51.076;13.748;2023-05-20T05:59:24;36.90;;;33.80;;
1957;SDS011;979;51.076;13.748;2023-05-20T06:02:03;35.30;;;32.17;;
1957;SDS011;979;51.076;13.748;2023-05-20T06:04:33;36.80;;;33.60;;
1957;SDS011;979;51.076;13.748;2023-05-20T06:07:06;36.57;;;33.23;;
1957;SDS011;979;51.076;13.748;2023-05-20T06:09:37;37.63;;;34.40;;
1957;SDS011;979;51.076;13.748;2023-05-20T06:12:09;35.83;;;32.40;;
1957;SDS011;979;51.076;13.748;2023-05-20T06:14:39;37.20;;;34.00;;
1957;SDS011;979;51.076;13.748;2023-05-20T06:17:08;38.67;;;35.07;;
1957;SDS011;979;51.076;13.748;2023-05-20T06:19:37;38.03;;;34.50;;
1957;SDS011;979;51.076;13.748;2023-05-20T06:22:08;38.77;;;35.20;;
1957;SDS011;979;51.076;13.748;2023-05-20T06:24:40;38.00;;;34.80;;
1957;SDS011;979;51.076;13.748;2023-05-20T06:27:11;35.60;;;32.50;;
1957;SDS011;979;51.076;13.748;2023-05-20T06:29:41;38.80;;;35.50;;
1957;SDS011;979;51.076;13.748;2023-05-20T06:32:13;38.73;;;35.03;;
1957;SDS011;979;51.076;13.748;2023-05-20T06:34:42;38.53;;;35.30;;
1957;SDS011;979;51.076;13.748;2023-05-20T06:37:13;38.83;;;35.40;;
1957;SDS011;979;51.076;13.748;2023-05-20T06:39:42;37.13;;;34.03;;
1957;SDS011;979;51.076;13.748;2023-05-20T06:42:14;38.07;;;34.73;;
1957;SDS011;979;51.076;13.748;2023-05-20T06:44:47;38.30;;;35.03;;
1957;SDS011;979;51.076;13.748;2023-05-20T06:47:27;39.40;;;35.53;;
1957;SDS011;979;51.076;13.748;2023-05-20T06:50:07;37.57;;;34.37;;
1957;SDS011;979;51.076;13.748;2023-05-20T06:52:37;38.73;;;35.37;;
1957;SDS011;979;51.076;13.748;2023-05-20T06:55:22;36.60;;;33.57;;
1957;SDS011;979;51.076;13.748;2023-05-20T06:57:54;37.70;;;34.33;;
1957;SDS011;979;51.076;13.748;2023-05-20T07:00:23;37.70;;;34.20;;
1957;SDS011;979;51.076;13.748;2023-05-20T07:02:56;36.87;;;33.53;;
1957;SDS011;979;51.076;13.748;2023-05-20T07:05:35;39.00;;;35.47;;
1957;SDS011;979;51.076;13.748;2023-05-20T07:08:07;39.27;;;35.97;;
1957;SDS011;979;51.076;13.748;2023-05-20T07:10:37;38.23;;;34.90;;
1957;SDS011;979;51.076;13.748;2023-05-20T07:13:20;37.83;;;34.70;;
1957;SDS011;979;51.076;13.748;2023-05-20T07:15:52;33.33;;;30.60;;
1957;SDS011;979;51.076;13.748;2023-05-20T07:18:27;37.50;;;34.30;;
1957;SDS011;979;51.076;13.748;2023-05-20T07:20:59;37.57;;;34.37;;
1957;SDS011;979;51.076;13.748;2023-05-20T07:23:53;38.20;;;34.70;;
1957;SDS011;979;51.076;13.748;2023-05-20T07:26:27;38.50;;;35.27;;
1957;SDS011;979;51.076;13.748;2023-05-20T07:29:00;39.10;;;35.80;;
1957;SDS011;979;51.076;13.748;2023-05-20T07:31:30;35.53;;;32.63;;
1957;SDS011;979;51.076;13.748;2023-05-20T07:33:58;39.33;;;35.93;;
1957;SDS011;979;51.076;13.748;2023-05-20T07:36:27;36.93;;;33.87;;
1957;SDS011;979;51.076;13.748;2023-05-20T07:38:59;39.30;;;35.80;;
1957;SDS011;979;51.076;13.748;2023-05-20T07:41:34;39.00;;;35.70;;
1957;SDS011;979;51.076;13.748;2023-05-20T07:44:06;38.70;;;35.40;;
1957;SDS011;979;51.076;13.748;2023-05-20T07:46:38;37.83;;;34.60;;
1957;SDS011;979;51.076;13.748;2023-05-20T07:49:09;38.20;;;34.80;;
1957;SDS011;979;51.076;13.748;2023-05-20T07:51:38;37.53;;;34.63;;
1957;SDS011;979;51.076;13.748;2023-05-20T07:54:07;38.27;;;35.00;;
1957;SDS011;979;51.076;13.748;2023-05-20T07:56:35;36.97;;;33.97;;
1957;SDS011;979;51.076;13.748;2023-05-20T07:59:07;36.33;;;33.13;;
1957;SDS011;979;51.076;13.748;2023-05-20T08:01:40;35.27;;;32.40;;
1957;SDS011;979;51.076;13.748;2023-05-20T08:04:10;36.23;;;33.37;;
1957;SDS011;979;51.076;13.748;2023-05-20T08:06:39;36.80;;;33.80;;
1957;SDS011;979;51.076;13.748;2023-05-20T08:09:14;36.20;;;33.37;;
1957;SDS011;979;51.076;13.748;2023-05-20T08:11:47;36.10;;;33.27;;
1957;SDS011;979;51.076;13.748;2023-05-20T08:14:17;37.20;;;34.20;;
1957;SDS011;979;51.076;13.748;2023-05-20T08:16:49;35.87;;;33.07;;
1957;SDS011;979;51.076;13.748;2023-05-20T08:19:20;36.07;;;33.40;;
1957;SDS011;979;51.076;13.748;2023-05-20T08:21:51;39.13;;;35.67;;
1957;SDS011;979;51.076;13.748;2023-05-20T08:24:20;36.90;;;33.97;;
1957;SDS011;979;51.076;13.748;2023-05-20T08:26:49;38.67;;;35.03;;
1957;SDS011;979;51.076;13.748;2023-05-20T08:29:21;38.23;;;35.10;;
1957;SDS011;979;51.076;13.748;2023-05-20T08:31:50;37.33;;;34.40;;
1957;SDS011;979;51.076;13.748;2023-05-20T08:34:20;35.77;;;32.97;;
1957;SDS011;979;51.076;13.748;2023-05-20T08:36:54;35.30;;;32.60;;
1957;SDS011;979;51.076;13.748;2023-05-20T08:39:28;35.20;;;32.47;;
1957;SDS011;979;51.076;13.748;2023-05-20T08:42:01;38.83;;;35.63;;
1957;SDS011;979;51.076;13.748;2023-05-20T08:44:34;35.80;;;32.83;;
1957;SDS011;979;51.076;13.748;2023-05-20T08:47:03;34.53;;;31.83;;
1957;SDS011;979;51.076;13.748;2023-05-20T08:49:35;36.97;;;33.97;;
1957;SDS011;979;51.076;13.748;2023-05-20T08:52:09;36.30;;;33.20;;
1957;SDS011;979;51.076;13.748;2023-05-20T08:54:42;35.40;;;32.63;;
1957;SDS011;979;51.076;13.748;2023-05-20T08:57:12;35.47;;;32.57;;
1957;SDS011;979;51.076;13.748;2023-05-20T08:59:44;35.93;;;33.03;;
1957;SDS011;979;51.076;13.748;2023-05-20T09:02:13;34.93;;;32.13;;
1957;SDS011;979;51.076;13.748;2023-05-20T09:04:43;36.63;;;33.80;;
1957;SDS011;979;51.076;13.748;2023-05-20T09:07:11;36.90;;;33.60;;
1957;SDS011;979;51.076;13.748;2023-05-20T09:09:40;35.70;;;32.93;;
1957;SDS011;979;51.076;13.748;2023-05-20T09:12:15;34.90;;;32.10;;
1957;SDS011;979;51.076;13.748;2023-05-20T09:14:51;35.40;;;32.70;;
1957;SDS011;979;51.076;13.748;2023-05-20T09:17:20;35.63;;;32.93;;
1957;SDS011;979;51.076;13.748;2023-05-20T09:19:50;33.43;;;30.83;;
1957;SDS011;979;51.076;13.748;2023-05-20T09:22:23;34.70;;;32.00;;
1957;SDS011;979;51.076;13.748;2023-05-20T09:24:51;32.70;;;30.20;;
1957;SDS011;979;51.076;13.748;2023-05-20T09:27:23;31.40;;;29.00;;
1957;SDS011;979;51.076;13.748;2023-05-20T09:29:54;34.77;;;31.93;;
1957;SDS011;979;51.076;13.748;2023-05-20T09:32:23;35.80;;;32.80;;
1957;SDS011;979;51.076;13.748;2023-05-20T09:35:06;35.63;;;32.67;;
1957;SDS011;979;51.076;13.748;2023-05-20T09:37:38;34.87;;;31.90;;
1957;SDS011;979;51.076;13.748;2023-05-20T09:40:10;35.10;;;32.37;;
1957;SDS011;979;51.076;13.748;2023-05-20T09:42:41;34.37;;;31.67;;
1957;SDS011;979;51.076;13.748;2023-05-20T09:45:16;36.60;;;33.83;;
1957;SDS011;979;51.076;13.748;2023-05-20T09:47:44;33.57;;;31.03;;
1957;SDS011;979;51.076;13.748;2023-05-20T09:50:16;33.73;;;30.93;;
1957;SDS011;979;51.076;13.748;2023-05-20T09:52:47;35.87;;;33.17;;
1957;SDS011;979;51.076;13.748;2023-05-20T09:55:16;33.93;;;31.30;;
1957;SDS011;979;51.076;13.748;2023-05-20T09:57:46;33.87;;;31.27;;
1957;SDS011;979;51.076;13.748;2023-05-20T10:00:16;36.13;;;33.27;;
1957;SDS011;979;51.076;13.748;2023-05-20T10:02:46;36.17;;;33.27;;
1957;SDS011;979;51.076;13.748;2023-05-20T10:05:17;31.73;;;29.43;;
1957;SDS011;979;51.076;13.748;2023-05-20T10:07:58;32.77;;;30.10;;
1957;SDS011;979;51.076;13.748;2023-05-20T10:10:49;32.53;;;30.07;;
1957;SDS011;979;51.076;13.748;2023-05-20T10:13:28;32.87;;;30.47;;
1957;SDS011;979;51.076;13.748;2023-05-20T10:16:22;31.50;;;29.20;;
1957;SDS011;979;51.076;13.748;2023-05-20T10:19:04;32.20;;;29.80;;
1957;SDS011;979;51.076;13.748;2023-05-20T10:21:40;31.70;;;29.30;;
1957;SDS011;979;51.076;13.748;2023-05-20T10:24:08;31.70;;;29.13;;
1957;SDS011;979;51.076;13.748;2023-05-20T10:26:41;31.00;;;28.43;;
1957;SDS011;979;51.076;13.748;2023-05-20T10:29:18;32.40;;;29.83;;
1957;SDS011;979;51.076;13.748;2023-05-20T10:31:55;32.37;;;29.80;;
1957;SDS011;979;51.076;13.748;2023-05-20T10:34:29;32.10;;;29.50;;
1957;SDS011;979;51.076;13.748;2023-05-20T10:37:22;32.03;;;29.43;;
1957;SDS011;979;51.076;13.748;2023-05-20T10:40:01;33.33;;;30.90;;
1957;SDS011;979;51.076;13.748;2023-05-20T10:42:40;30.97;;;28.77;;
1957;SDS011;979;51.076;13.748;2023-05-20T10:45:46;31.33;;;29.03;;
1957;SDS011;979;51.076;13.748;2023-05-20T10:49:15;32.07;;;29.40;;
1957;SDS011;979;51.076;13.748;2023-05-20T10:51:52;30.17;;;27.97;;
1957;SDS011;979;51.076;13.748;2023-05-20T10:54:42;31.50;;;29.00;;
1957;SDS011;979;51.076;13.748;2023-05-20T10:57:20;32.07;;;29.60;;
1957;SDS011;979;51.076;13.748;2023-05-20T12:04:12;32.20;;;30.10;;
1957;SDS011;979;51.076;13.748;2023-05-20T12:07:54;28.10;;;26.50;;
1957;SDS011;979;51.076;13.748;2023-05-20T12:11:23;29.33;;;27.63;;
1957;SDS011;979;51.076;13.748;2023-05-20T12:14:35;27.43;;;25.77;;
1957;SDS011;979;51.076;13.748;2023-05-20T12:17:30;29.93;;;28.03;;
1957;SDS011;979;51.076;13.748;2023-05-20T12:20:07;27.97;;;26.47;;
1957;SDS011;979;51.076;13.748;2023-05-20T12:23:01;28.73;;;27.00;;
1957;SDS011;979;51.076;13.748;2023-05-20T12:26:22;28.10;;;26.50;;
1957;SDS011;979;51.076;13.748;2023-05-20T12:29:14;30.70;;;28.80;;
1957;SDS011;979;51.076;13.748;2023-05-20T12:31:43;29.97;;;28.37;;
1957;SDS011;979;51.076;13.748;2023-05-20T12:34:17;28.07;;;26.30;;
1957;SDS011;979;51.076;13.748;2023-05-20T12:36:46;28.70;;;26.90;;
1957;SDS011;979;51.076;13.748;2023-05-20T12:39:18;28.53;;;26.60;;
1957;SDS011;979;51.076;13.748;2023-05-20T12:41:47;26.70;;;25.33;;
1957;SDS011;979;51.076;13.748;2023-05-20T12:44:18;30.43;;;28.53;;
1957;SDS011;979;51.076;13.748;2023-05-20T12:46:47;28.83;;;27.13;;
1957;SDS011;979;51.076;13.748;2023-05-20T12:49:24;28.43;;;26.93;;
1957;SDS011;979;51.076;13.748;2023-05-20T12:51:55;28.93;;;27.27;;
1957;SDS011;979;51.076;13.748;2023-05-20T12:54:26;28.50;;;26.90;;
1957;SDS011;979;51.076;13.748;2023-05-20T12:56:55;28.67;;;27.07;;
1957;SDS011;979;51.076;13.748;2023-05-20T12:59:25;30.43;;;28.73;;
1957;SDS011;979;51.076;13.748;2023-05-20T13:01:53;30.40;;;28.60;;
1957;SDS011;979;51.076;13.748;2023-05-20T13:04:23;27.83;;;26.20;;
1957;SDS011;979;51.076;13.748;2023-05-20T13:06:58;27.93;;;26.37;;
1957;SDS011;979;51.076;13.748;2023-05-20T13:09:27;31.00;;;29.20;;
1957;SDS011;979;51.076;13.748;2023-05-20T13:12:04;30.67;;;28.87;;
1957;SDS011;979;51.076;13.748;2023-05-20T13:14:33;30.23;;;28.30;;
1957;SDS011;979;51.076;13.748;2023-05-20T13:17:03;30.40;;;28.50;;
1957;SDS011;979;51.076;13.748;2023-05-20T13:19:34;30.73;;;28.70;;
1957;SDS011;979;51.076;13.748;2023-05-20T13:22:03;30.67;;;28.87;;
1957;SDS011;979;51.076;13.748;2023-05-20T13:24:35;29.53;;;27.93;;
1957;SDS011;979;51.076;13.748;2023-05-20T13:27:12;28.40;;;26.80;;
1957;SDS011;979;51.076;13.748;2023-05-20T13:29:44;28.47;;;26.87;;
1957;SDS011;979;51.076;13.748;2023-05-20T13:32:16;29.63;;;27.73;;
1957;SDS011;979;51.076;13.748;2023-05-20T13:34:52;29.93;;;28.20;;
1957;SDS011;979;51.076;13.748;2023-05-20T13:37:22;28.30;;;26.80;;
1957;SDS011;979;51.076;13.748;2023-05-20T13:39:55;30.07;;;28.17;;
1957;SDS011;979;51.076;13.748;2023-05-20T13:42:25;32.20;;;30.20;;
1957;SDS011;979;51.076;13.748;2023-05-20T13:44:56;28.40;;;26.90;;
1957;SDS011;979;51.076;13.748;2023-05-20T13:47:31;29.67;;;28.03;;
1957;SDS011;979;51.076;13.748;2023-05-20T13:50:24;29.33;;;27.63;;
1957;SDS011;979;51.076;13.748;2023-05-20T13:53:00;31.30;;;29.40;;
1957;SDS011;979;51.076;13.748;2023-05-20T13:55:39;29.33;;;27.50;;
1957;SDS011;979;51.076;13.748;2023-05-20T13:58:16;28.10;;;26.40;;
1957;SDS011;979;51.076;13.748;2023-05-20T14:03:44;30.23;;;28.30;;
1957;SDS011;979;51.076;13.748;2023-05-20T14:06:45;28.20;;;26.47;;
1957;SDS011;979;51.076;13.748;2023-05-20T14:09:14;29.17;;;27.20;;
1957;SDS011;979;51.076;13.748;2023-05-20T14:11:43;28.90;;;27.20;;
1957;SDS011;979;51.076;13.748;2023-05-20T14:14:11;29.73;;;27.93;;
1957;SDS011;979;51.076;13.748;2023-05-20T14:16:40;31.23;;;29.23;;
1957;SDS011;979;51.076;13.748;2023-05-20T14:19:11;31.00;;;29.00;;
1957;SDS011;979;51.076;13.748;2023-05-20T14:21:41;30.10;;;28.10;;
1957;SDS011;979;51.076;13.748;2023-05-20T14:24:12;30.27;;;28.47;;
1957;SDS011;979;51.076;13.748;2023-05-20T14:26:40;31.30;;;29.10;;
1957;SDS011;979;51.076;13.748;2023-05-20T14:29:11;30.67;;;28.70;;
1957;SDS011;979;51.076;13.748;2023-05-20T14:31:41;29.53;;;27.73;;
1957;SDS011;979;51.076;13.748;2023-05-20T14:34:09;30.07;;;28.10;;
1957;SDS011;979;51.076;13.748;2023-05-20T14:36:39;31.20;;;29.10;;
1957;SDS011;979;51.076;13.748;2023-05-20T14:39:08;31.53;;;29.43;;
1957;SDS011;979;51.076;13.748;2023-05-20T14:41:38;31.27;;;29.37;;
1957;SDS011;979;51.076;13.748;2023-05-20T14:44:07;31.33;;;29.20;;
1957;SDS011;979;51.076;13.748;2023-05-20T14:46:49;33.60;;;31.10;;
1957;SDS011;979;51.076;13.748;2023-05-20T14:49:18;32.63;;;30.53;;
1957;SDS011;979;51.076;13.748;2023-05-20T14:51:47;31.70;;;29.63;;
1957;SDS011;979;51.076;13.748;2023-05-20T14:54:26;30.67;;;28.70;;
1957;SDS011;979;51.076;13.748;2023-05-20T14:57:25;31.07;;;28.87;;
1957;SDS011;979;51.076;13.748;2023-05-20T15:00:32;32.60;;;30.10;;
1957;SDS011;979;51.076;13.748;2023-05-20T15:03:25;31.57;;;29.50;;
1957;SDS011;979;51.076;13.748;2023-05-20T15:06:20;31.00;;;28.73;;
1957;SDS011;979;51.076;13.748;2023-05-20T15:12:14;31.37;;;29.37;;
1957;SDS011;979;51.076;13.748;2023-05-20T15:18:14;32.37;;;30.13;;
1957;SDS011;979;51.076;13.748;2023-05-20T15:21:10;31.90;;;29.70;;
1957;SDS011;979;51.076;13.748;2023-05-20T15:24:20;31.80;;;29.70;;
1957;SDS011;979;51.076;13.748;2023-05-20T15:26:49;30.40;;;28.50;;
1957;SDS011;979;51.076;13.748;2023-05-20T15:32:29;30.63;;;28.27;;
1957;SDS011;979;51.076;13.748;2023-05-20T15:35:00;31.60;;;29.20;;
1957;SDS011;979;51.076;13.748;2023-05-20T15:37:35;32.30;;;30.00;;
1957;SDS011;979;51.076;13.748;2023-05-20T15:40:12;30.70;;;28.63;;
1957;SDS011;979;51.076;13.748;2023-05-20T15:42:42;31.43;;;29.20;;
1957;SDS011;979;51.076;13.748;2023-05-20T15:45:35;30.80;;;28.60;;
1957;SDS011;979;51.076;13.748;2023-05-20T15:48:22;31.97;;;29.93;;
1957;SDS011;979;51.076;13.748;2023-05-20T15:54:36;31.93;;;29.33;;
1957;SDS011;979;51.076;13.748;2023-05-20T15:57:25;33.87;;;31.37;;
1957;SDS011;979;51.076;13.748;2023-05-20T16:00:32;30.60;;;28.60;;
1957;SDS011;979;51.076;13.748;2023-05-20T16:03:19;32.03;;;30.03;;
1957;SDS011;979;51.076;13.748;2023-05-20T16:06:23;31.23;;;28.93;;
1957;SDS011;979;51.076;13.748;2023-05-20T16:09:00;31.23;;;29.23;;
1957;SDS011;979;51.076;13.748;2023-05-20T16:11:40;32.07;;;29.83;;
1957;SDS011;979;51.076;13.748;2023-05-20T16:17:55;32.73;;;30.30;;
1957;SDS011;979;51.076;13.748;2023-05-20T16:23:49;32.40;;;29.80;;
1957;SDS011;979;51.076;13.748;2023-05-20T16:26:43;32.70;;;30.50;;
1957;SDS011;979;51.076;13.748;2023-05-20T16:29:28;31.10;;;29.10;;
1957;SDS011;979;51.076;13.748;2023-05-20T16:32:22;31.27;;;29.07;;
1957;SDS011;979;51.076;13.748;2023-05-20T16:35:04;31.50;;;29.37;;
1957;SDS011;979;51.076;13.748;2023-05-20T16:38:13;33.17;;;30.57;;
1957;SDS011;979;51.076;13.748;2023-05-20T16:41:12;31.07;;;29.07;;
1957;SDS011;979;51.076;13.748;2023-05-20T16:43:56;32.70;;;30.40;;
1957;SDS011;979;51.076;13.748;2023-05-20T16:46:55;32.67;;;30.47;;
1957;SDS011;979;51.076;13.748;2023-05-20T16:49:54;33.80;;;31.30;;
1957;SDS011;979;51.076;13.748;2023-05-20T16:52:47;31.57;;;29.23;;
1957;SDS011;979;51.076;13.748;2023-05-20T16:55:34;32.00;;;29.80;;
1957;SDS011;979;51.076;13.748;2023-05-20T16:58:41;32.37;;;30.27;;
1957;SDS011;979;51.076;13.748;2023-05-20T17:01:33;31.37;;;29.13;;
1957;SDS011;979;51.076;13.748;2023-05-20T17:04:17;30.60;;;28.60;;